»·PEaware :: N9238K KSNA-KBUR

N9238K :: KSNA-KBUR

FLIGHT INFORMATION

Flight Status: Arrived
Operator: Privately registered:
United States
More flights under this callsign
Pilot: Anonymous 20518 (20518)
Aircraft: PIPER PA-28 CHEROKEE ARCHER
(PA28)
More flights by this aircraft type
Origin: KSNA John Wayne-Orange Co
United States
Destination: KBUR Bob Hope-Burbank
United States
More flights between these airports :: More routes between these airports
Route: +SLI V23 POPPR SMO125R SMO SMO311R SILEX
File this flight plan on PilotEdge
Remarks: Tec cstp1
Altitude:
(Current/Filed)
4,000ft
Speed:
(Current/Filed)
110kts
Departed: 10-Oct-18 05:21 PM
Arrived: 10-Oct-18 05:58 PM
Distance/Time
Traveled:
40nm/0:37
Distance/Time
To Go:
Arrived

Flight Plot

Page will automatically refresh every two minutes.


Map Options




Map Legend


Flown Route
Filed Route
Departure Airport
Arrival Airport
Navaid (VOR, NDB)
Fix

Horizontal Profiles

Position Reports

Time Latitude Longitude Heading Altitude Ground
Speed
10-Oct-18 17:04 33.669292 -117.868728 309 61ft 0kts
10-Oct-18 17:05 33.669292 -117.868728 309 61ft 0kts
10-Oct-18 17:06 33.669292 -117.868728 309 61ft 0kts
10-Oct-18 17:07 33.669292 -117.868728 309 61ft 0kts
10-Oct-18 17:08 33.669292 -117.868728 309 61ft 0kts
10-Oct-18 17:09 33.669292 -117.868728 309 61ft 0kts
10-Oct-18 17:10 33.669292 -117.868728 309 61ft 0kts
10-Oct-18 17:11 33.669292 -117.868728 309 61ft 0kts
10-Oct-18 17:12 33.669292 -117.868728 309 61ft 0kts
10-Oct-18 17:13 33.669292 -117.868728 309 61ft 0kts
10-Oct-18 17:14 33.669292 -117.868728 309 61ft 0kts
10-Oct-18 17:15 33.669292 -117.868728 309 61ft 0kts
10-Oct-18 17:16 33.669292 -117.868728 309 61ft 0kts
10-Oct-18 17:17 33.669797 -117.869441 312 61ft 8kts
10-Oct-18 17:18 33.672962 -117.867392 41 61ft 15kts
10-Oct-18 17:19 33.677000 -117.865240 27 61ft 27kts
10-Oct-18 17:20 33.679957 -117.863639 327 61ft 0kts
10-Oct-18 17:21 33.679957 -117.863639 326 61ft 0kts
10-Oct-18 17:22 33.680003 -117.864261 215 61ft 14kts
10-Oct-18 17:23 33.663698 -117.880288 227 617ft 99kts
10-Oct-18 17:24 33.648429 -117.904523 228 1739ft 95kts
10-Oct-18 17:25 33.636473 -117.932340 231 2065ft 133kts
10-Oct-18 17:26 33.639293 -117.985838 236 1808ft 122kts
10-Oct-18 17:27 33.634364 -118.019627 303 2489ft 114kts
10-Oct-18 17:28 33.648702 -118.047811 309 3091ft 122kts
10-Oct-18 17:29 33.669053 -118.080617 316 3727ft 126kts
10-Oct-18 17:30 33.695223 -118.121025 311 3918ft 135kts
10-Oct-18 17:31 33.713664 -118.149608 313 3926ft 131kts
10-Oct-18 17:32 33.738812 -118.180534 319 3930ft 127kts
10-Oct-18 17:33 33.764271 -118.209387 323 3994ft 125kts
10-Oct-18 17:34 33.793330 -118.232447 318 3977ft 127kts
10-Oct-18 17:35 33.822787 -118.267952 325 3962ft 126kts
10-Oct-18 17:36 33.845229 -118.291159 332 3913ft 129kts
10-Oct-18 17:37 33.872025 -118.318277 320 4030ft 121kts
10-Oct-18 17:38 33.896554 -118.348296 326 3958ft 127kts
10-Oct-18 17:39 33.925034 -118.372052 309 3939ft 131kts
10-Oct-18 17:40 33.941255 -118.408565 307 4055ft 123kts
10-Oct-18 17:41 33.976210 -118.428766 342 4131ft 122kts
10-Oct-18 17:42 34.001197 -118.447207 318 4116ft 125kts
10-Oct-18 17:43 34.021767 -118.483112 306 4041ft 129kts
10-Oct-18 17:44 34.042125 -118.518779 301 4091ft 123kts
10-Oct-18 17:45 34.062977 -118.552896 318 4001ft 134kts
10-Oct-18 17:46 34.089997 -118.580539 321 4066ft 126kts
10-Oct-18 17:47 34.117925 -118.606214 312 4082ft 127kts
10-Oct-18 17:48 34.144432 -118.634462 324 4051ft 128kts
10-Oct-18 17:49 34.178149 -118.664531 321 3622ft 135kts
10-Oct-18 17:50 34.206097 -118.665923 82 3453ft 99kts
10-Oct-18 17:51 34.207267 -118.640409 81 3566ft 101kts
10-Oct-18 17:52 34.208961 -118.601776 107 3587ft 102kts
10-Oct-18 17:53 34.196241 -118.578046 100 3559ft 103kts
10-Oct-18 17:54 34.194220 -118.544812 98 3628ft 100kts
10-Oct-18 17:55 34.198187 -118.511397 86 3323ft 104kts
10-Oct-18 17:56 34.199030 -118.475581 99 2622ft 107kts
10-Oct-18 17:57 34.199491 -118.439928 84 1930ft 100kts
10-Oct-18 17:58 34.198258 -118.407023 86 1356ft 94kts
10-Oct-18 17:59 34.197992 -118.379530 93 992ft 64kts
10-Oct-18 18:00 34.197774 -118.361731 87 719ft 27kts
10-Oct-18 18:01 34.198406 -118.360360 351 718ft 0kts
10-Oct-18 18:02 34.198921 -118.358506 87 716ft 20kts

Navigation Log

Ident Type
Flight plan parsing failed, navigation log unavailable